sensor_id;sensor_type;location;lat;lon;timestamp;pressure;altitude;pressure_sealevel;temperature;humidity
35307;BME280;21420;52.196;21.416;2022-08-19T00:01:47;99950.16;;;21.00;56.20
35307;BME280;21420;52.196;21.416;2022-08-19T00:04:16;99957.21;;;20.93;56.22
35307;BME280;21420;52.196;21.416;2022-08-19T00:06:45;99958.09;;;20.87;56.26
35307;BME280;21420;52.196;21.416;2022-08-19T00:09:14;99958.39;;;20.81;56.31
35307;BME280;21420;52.196;21.416;2022-08-19T00:11:43;99961.80;;;20.76;56.40
35307;BME280;21420;52.196;21.416;2022-08-19T00:14:12;99959.28;;;20.70;56.42
35307;BME280;21420;52.196;21.416;2022-08-19T00:16:42;99955.52;;;20.69;56.51
35307;BME280;21420;52.196;21.416;2022-08-19T00:19:10;99951.58;;;20.66;56.74
35307;BME280;21420;52.196;21.416;2022-08-19T00:21:37;99951.58;;;20.66;56.74
35307;BME280;21420;52.196;21.416;2022-08-19T00:24:08;99953.38;;;20.65;56.76
35307;BME280;21420;52.196;21.416;2022-08-19T00:26:36;99950.66;;;20.61;56.81
35307;BME280;21420;52.196;21.416;2022-08-19T00:29:04;99951.49;;;20.58;56.89
35307;BME280;21420;52.196;21.416;2022-08-19T00:31:32;99953.66;;;20.55;56.96
35307;BME280;21420;52.196;21.416;2022-08-19T00:33:59;99948.33;;;20.52;57.02
35307;BME280;21420;52.196;21.416;2022-08-19T00:36:25;99955.52;;;20.50;57.08
35307;BME280;21420;52.196;21.416;2022-08-19T00:38:53;99959.54;;;20.45;57.11
35307;BME280;21420;52.196;21.416;2022-08-19T00:41:21;99964.17;;;20.40;57.16
35307;BME280;21420;52.196;21.416;2022-08-19T00:44:07;99966.97;;;20.36;57.21
35307;BME280;21420;52.196;21.416;2022-08-19T00:46:40;99967.38;;;20.35;57.28
35307;BME280;21420;52.196;21.416;2022-08-19T00:49:20;99972.17;;;20.31;57.33
35307;BME280;21420;52.196;21.416;2022-08-19T00:51:53;99980.16;;;20.29;57.43
35307;BME280;21420;52.196;21.416;2022-08-19T00:54:22;99974.62;;;20.25;57.51
35307;BME280;21420;52.196;21.416;2022-08-19T00:56:49;99969.47;;;20.24;57.58
35307;BME280;21420;52.196;21.416;2022-08-19T00:59:18;99966.92;;;20.21;57.61
35307;BME280;21420;52.196;21.416;2022-08-19T01:01:45;99963.75;;;20.19;57.67
35307;BME280;21420;52.196;21.416;2022-08-19T01:04:13;99963.81;;;20.15;57.71
35307;BME280;21420;52.196;21.416;2022-08-19T01:06:40;99961.66;;;20.11;57.74
35307;BME280;21420;52.196;21.416;2022-08-19T01:09:06;99958.50;;;20.09;57.79
35307;BME280;21420;52.196;21.416;2022-08-19T01:11:36;99965.67;;;20.07;57.83
35307;BME280;21420;52.196;21.416;2022-08-19T01:14:05;99968.84;;;20.05;57.90
35307;BME280;21420;52.196;21.416;2022-08-19T01:16:34;99976.63;;;20.02;57.91
35307;BME280;21420;52.196;21.416;2022-08-19T01:19:01;99972.08;;;20.00;57.99
35307;BME280;21420;52.196;21.416;2022-08-19T01:21:37;99970.30;;;19.98;58.06
35307;BME280;21420;52.196;21.416;2022-08-19T01:24:06;99966.16;;;19.94;58.10
35307;BME280;21420;52.196;21.416;2022-08-19T01:26:38;99965.77;;;19.92;58.18
35307;BME280;21420;52.196;21.416;2022-08-19T01:29:07;99970.77;;;19.89;58.23
35307;BME280;21420;52.196;21.416;2022-08-19T01:31:34;99968.82;;;19.86;58.30
35307;BME280;21420;52.196;21.416;2022-08-19T01:34:03;99966.84;;;19.83;58.36
35307;BME280;21420;52.196;21.416;2022-08-19T01:36:35;99967.06;;;19.81;58.41
35307;BME280;21420;52.196;21.416;2022-08-19T01:39:08;99972.28;;;19.75;58.33
35307;BME280;21420;52.196;21.416;2022-08-19T01:41:36;99977.67;;;19.70;58.43
35307;BME280;21420;52.196;21.416;2022-08-19T01:44:03;99971.30;;;19.70;58.55
35307;BME280;21420;52.196;21.416;2022-08-19T01:46:31;99976.68;;;19.69;58.64
35307;BME280;21420;52.196;21.416;2022-08-19T01:48:58;99976.27;;;19.67;58.64
35307;BME280;21420;52.196;21.416;2022-08-19T01:51:24;99975.27;;;19.65;58.73
35307;BME280;21420;52.196;21.416;2022-08-19T01:53:52;99981.83;;;19.63;58.74
35307;BME280;21420;52.196;21.416;2022-08-19T01:56:19;99979.66;;;19.63;58.81
35307;BME280;21420;52.196;21.416;2022-08-19T01:58:58;99968.38;;;19.62;58.89
35307;BME280;21420;52.196;21.416;2022-08-19T02:01:23;99973.55;;;19.60;58.95
35307;BME280;21420;52.196;21.416;2022-08-19T02:03:49;99971.95;;;19.59;59.04
35307;BME280;21420;52.196;21.416;2022-08-19T02:06:17;99973.16;;;19.58;59.07
35307;BME280;21420;52.196;21.416;2022-08-19T02:08:43;99971.95;;;19.59;59.13
35307;BME280;21420;52.196;21.416;2022-08-19T02:11:23;99966.22;;;19.58;59.20
35307;BME280;21420;52.196;21.416;2022-08-19T02:13:53;99966.60;;;19.60;59.25
35307;BME280;21420;52.196;21.416;2022-08-19T02:16:51;99967.78;;;19.59;59.28
35307;BME280;21420;52.196;21.416;2022-08-19T02:19:17;99964.22;;;19.58;59.31
35307;BME280;21420;52.196;21.416;2022-08-19T02:21:43;99956.11;;;19.55;59.36
35307;BME280;21420;52.196;21.416;2022-08-19T02:24:10;99958.49;;;19.57;59.43
35307;BME280;21420;52.196;21.416;2022-08-19T02:26:37;99958.28;;;19.56;59.47
35307;BME280;21420;52.196;21.416;2022-08-19T02:29:03;99954.12;;;19.56;59.52
35307;BME280;21420;52.196;21.416;2022-08-19T02:31:29;99945.61;;;19.55;59.54
35307;BME280;21420;52.196;21.416;2022-08-19T02:33:56;99946.39;;;19.55;59.58
35307;BME280;21420;52.196;21.416;2022-08-19T02:36:24;99948.99;;;19.54;59.63
35307;BME280;21420;52.196;21.416;2022-08-19T02:38:51;99950.38;;;19.54;59.66
35307;BME280;21420;52.196;21.416;2022-08-19T02:41:21;99953.94;;;19.55;59.73
35307;BME280;21420;52.196;21.416;2022-08-19T02:43:49;99944.22;;;19.55;59.77
35307;BME280;21420;52.196;21.416;2022-08-19T02:46:21;99944.02;;;19.54;59.81
35307;BME280;21420;52.196;21.416;2022-08-19T02:48:51;99948.39;;;19.55;59.88
35307;BME280;21420;52.196;21.416;2022-08-19T02:51:24;99949.95;;;19.56;59.92
35307;BME280;21420;52.196;21.416;2022-08-19T02:53:52;99956.29;;;19.56;60.00
35307;BME280;21420;52.196;21.416;2022-08-19T02:56:19;99956.50;;;19.58;60.05
35307;BME280;21420;52.196;21.416;2022-08-19T02:58:47;99961.27;;;19.57;60.03
35307;BME280;21420;52.196;21.416;2022-08-19T03:01:29;99957.89;;;19.58;60.07
35307;BME280;21420;52.196;21.416;2022-08-19T03:03:59;99957.90;;;19.54;60.04
35307;BME280;21420;52.196;21.416;2022-08-19T03:06:27;99960.09;;;19.54;60.14
35307;BME280;21420;52.196;21.416;2022-08-19T03:08:55;99951.77;;;19.54;60.21
35307;BME280;21420;52.196;21.416;2022-08-19T03:11:24;99951.77;;;19.54;60.26
35307;BME280;21420;52.196;21.416;2022-08-19T03:13:52;99950.95;;;19.54;60.27
35307;BME280;21420;52.196;21.416;2022-08-19T03:16:22;99956.52;;;19.54;60.30
35307;BME280;21420;52.196;21.416;2022-08-19T03:18:51;99955.13;;;19.54;60.34
35307;BME280;21420;52.196;21.416;2022-08-19T03:21:23;99963.87;;;19.52;60.33
35307;BME280;21420;52.196;21.416;2022-08-19T03:23:56;99959.51;;;19.51;60.38
35307;BME280;21420;52.196;21.416;2022-08-19T03:26:24;99960.72;;;19.50;60.41
35307;BME280;21420;52.196;21.416;2022-08-19T03:28:50;99951.80;;;19.47;60.43
35307;BME280;21420;52.196;21.416;2022-08-19T03:31:19;99957.95;;;19.47;60.46
35307;BME280;21420;52.196;21.416;2022-08-19T03:33:52;99948.63;;;19.45;60.52
35307;BME280;21420;52.196;21.416;2022-08-19T03:36:25;99955.57;;;19.45;60.56
35307;BME280;21420;52.196;21.416;2022-08-19T03:38:51;99954.01;;;19.44;60.61
35307;BME280;21420;52.196;21.416;2022-08-19T03:41:23;99950.23;;;19.46;60.64
35307;BME280;21420;52.196;21.416;2022-08-19T03:43:52;99955.57;;;19.45;60.67
35307;BME280;21420;52.196;21.416;2022-08-19T03:46:29;99957.55;;;19.48;60.75
35307;BME280;21420;52.196;21.416;2022-08-19T03:48:55;99952.99;;;19.50;60.73
35307;BME280;21420;52.196;21.416;2022-08-19T03:51:28;99952.77;;;19.52;60.78
35307;BME280;21420;52.196;21.416;2022-08-19T03:53:59;99949.77;;;19.55;60.81
35307;BME280;21420;52.196;21.416;2022-08-19T03:56:27;99938.45;;;19.58;60.90
35307;BME280;21420;52.196;21.416;2022-08-19T03:58:58;99943.56;;;19.63;60.95
35307;BME280;21420;52.196;21.416;2022-08-19T04:01:27;99950.30;;;19.69;60.99
35307;BME280;21420;52.196;21.416;2022-08-19T04:03:55;99949.07;;;19.73;61.03
35307;BME280;21420;52.196;21.416;2022-08-19T04:06:26;99959.94;;;19.80;61.08
35307;BME280;21420;52.196;21.416;2022-08-19T04:08:56;99959.67;;;19.86;61.13
35307;BME280;21420;52.196;21.416;2022-08-19T04:11:30;99959.03;;;19.93;61.14
35307;BME280;21420;52.196;21.416;2022-08-19T04:13:59;99962.53;;;20.01;61.22
35307;BME280;21420;52.196;21.416;2022-08-19T04:16:26;99956.50;;;20.10;61.24
35307;BME280;21420;52.196;21.416;2022-08-19T04:18:55;99962.36;;;20.19;61.26
35307;BME280;21420;52.196;21.416;2022-08-19T04:21:25;99969.63;;;20.28;61.30
35307;BME280;21420;52.196;21.416;2022-08-19T04:23:52;99965.41;;;20.35;61.28
35307;BME280;21420;52.196;21.416;2022-08-19T04:26:23;99970.66;;;20.45;61.31
35307;BME280;21420;52.196;21.416;2022-08-19T04:28:51;99965.39;;;20.54;61.32
35307;BME280;21420;52.196;21.416;2022-08-19T04:31:25;99960.33;;;20.65;61.34
35307;BME280;21420;52.196;21.416;2022-08-19T04:33:52;99960.04;;;20.74;61.36
35307;BME280;21420;52.196;21.416;2022-08-19T04:36:25;99958.94;;;20.84;61.33
35307;BME280;21420;52.196;21.416;2022-08-19T04:39:00;99956.60;;;20.94;61.34
35307;BME280;21420;52.196;21.416;2022-08-19T04:41:26;99963.87;;;21.03;61.30
35307;BME280;21420;52.196;21.416;2022-08-19T04:44:13;99963.53;;;21.13;61.31
35307;BME280;21420;52.196;21.416;2022-08-19T04:46:41;99970.12;;;21.26;61.37
35307;BME280;21420;52.196;21.416;2022-08-19T04:49:07;99968.34;;;21.39;61.42
35307;BME280;21420;52.196;21.416;2022-08-19T04:51:35;99971.55;;;21.53;61.39
35307;BME280;21420;52.196;21.416;2022-08-19T04:54:03;99969.89;;;21.71;61.40
35307;BME280;21420;52.196;21.416;2022-08-19T04:56:30;99973.17;;;21.90;61.40
35307;BME280;21420;52.196;21.416;2022-08-19T04:58:57;99962.34;;;22.07;61.42
35307;BME280;21420;52.196;21.416;2022-08-19T05:01:27;99961.24;;;22.24;61.34
35307;BME280;21420;52.196;21.416;2022-08-19T05:03:54;99959.89;;;22.44;61.38
35307;BME280;21420;52.196;21.416;2022-08-19T05:06:23;99957.63;;;22.59;61.25
35307;BME280;21420;52.196;21.416;2022-08-19T05:08:49;99957.08;;;22.76;61.24
35307;BME280;21420;52.196;21.416;2022-08-19T05:11:18;99956.44;;;22.89;61.11
35307;BME280;21420;52.196;21.416;2022-08-19T05:13:47;99968.43;;;22.97;60.96
35307;BME280;21420;52.196;21.416;2022-08-19T05:16:16;99962.66;;;22.96;60.75
35307;BME280;21420;52.196;21.416;2022-08-19T05:18:44;99964.73;;;23.04;60.83
35307;BME280;21420;52.196;21.416;2022-08-19T05:21:29;99962.30;;;23.14;60.85
35307;BME280;21420;52.196;21.416;2022-08-19T05:24:14;99968.44;;;23.25;60.82
35307;BME280;21420;52.196;21.416;2022-08-19T05:26:44;99966.55;;;23.31;60.66
35307;BME280;21420;52.196;21.416;2022-08-19T05:29:17;99968.47;;;23.34;60.67
35307;BME280;21420;52.196;21.416;2022-08-19T05:31:44;99965.70;;;23.42;60.62
35307;BME280;21420;52.196;21.416;2022-08-19T05:34:12;99971.97;;;23.46;60.54
35307;BME280;21420;52.196;21.416;2022-08-19T05:36:41;99975.31;;;23.49;60.49
35307;BME280;21420;52.196;21.416;2022-08-19T05:39:11;99975.14;;;23.56;60.53
35307;BME280;21420;52.196;21.416;2022-08-19T05:41:46;99980.30;;;23.66;60.52
35307;BME280;21420;52.196;21.416;2022-08-19T05:44:16;99981.35;;;23.72;60.33
35307;BME280;21420;52.196;21.416;2022-08-19T05:46:43;99986.52;;;23.74;60.10
35307;BME280;21420;52.196;21.416;2022-08-19T05:49:12;99994.10;;;23.65;59.76
35307;BME280;21420;52.196;21.416;2022-08-19T05:51:42;99996.02;;;23.60;59.89
35307;BME280;21420;52.196;21.416;2022-08-19T05:54:09;99996.70;;;23.64;59.82
35307;BME280;21420;52.196;21.416;2022-08-19T05:56:37;99999.78;;;23.69;60.08
35307;BME280;21420;52.196;21.416;2022-08-19T05:59:08;100002.09;;;23.83;60.13
35307;BME280;21420;52.196;21.416;2022-08-19T06:01:39;100009.26;;;23.92;60.12
35307;BME280;21420;52.196;21.416;2022-08-19T06:04:07;100010.48;;;24.07;60.20
35307;BME280;21420;52.196;21.416;2022-08-19T06:06:35;100002.42;;;24.18;60.17
35307;BME280;21420;52.196;21.416;2022-08-19T06:09:03;100008.19;;;24.27;60.07
35307;BME280;21420;52.196;21.416;2022-08-19T06:11:33;100010.20;;;24.35;60.00
35307;BME280;21420;52.196;21.416;2022-08-19T06:14:13;100002.93;;;24.45;60.03
35307;BME280;21420;52.196;21.416;2022-08-19T06:16:43;100008.25;;;24.56;60.06
35307;BME280;21420;52.196;21.416;2022-08-19T06:19:20;100006.20;;;24.73;60.04
35307;BME280;21420;52.196;21.416;2022-08-19T06:21:50;100004.93;;;24.90;60.04
35307;BME280;21420;52.196;21.416;2022-08-19T06:24:20;99994.77;;;25.09;59.87
35307;BME280;21420;52.196;21.416;2022-08-19T06:26:50;99995.83;;;25.28;59.75
35307;BME280;21420;52.196;21.416;2022-08-19T06:29:21;99993.77;;;25.37;59.54
35307;BME280;21420;52.196;21.416;2022-08-19T06:31:51;99992.73;;;25.52;59.53
35307;BME280;21420;52.196;21.416;2022-08-19T06:34:20;99990.30;;;25.84;59.74
35307;BME280;21420;52.196;21.416;2022-08-19T06:36:50;99996.31;;;25.91;59.14
35307;BME280;21420;52.196;21.416;2022-08-19T06:39:20;100004.39;;;25.89;58.93
35307;BME280;21420;52.196;21.416;2022-08-19T06:41:50;99999.90;;;25.79;58.69
35307;BME280;21420;52.196;21.416;2022-08-19T06:44:20;99996.42;;;25.74;58.82
35307;BME280;21420;52.196;21.416;2022-08-19T06:46:48;99994.05;;;25.73;58.65
35307;BME280;21420;52.196;21.416;2022-08-19T06:49:16;99994.97;;;25.70;58.80
35307;BME280;21420;52.196;21.416;2022-08-19T06:51:46;100000.34;;;25.77;58.75
35307;BME280;21420;52.196;21.416;2022-08-19T06:54:15;99994.73;;;25.77;58.72
35307;BME280;21420;52.196;21.416;2022-08-19T06:56:42;99994.45;;;25.80;58.67
35307;BME280;21420;52.196;21.416;2022-08-19T06:59:11;99993.56;;;25.95;58.73
35307;BME280;21420;52.196;21.416;2022-08-19T07:01:46;99998.92;;;26.33;59.00
35307;BME280;21420;52.196;21.416;2022-08-19T07:04:19;100001.19;;;27.22;59.38
35307;BME280;21420;52.196;21.416;2022-08-19T07:06:47;99998.11;;;28.14;59.29
35307;BME280;21420;52.196;21.416;2022-08-19T07:09:15;100005.68;;;29.10;59.07
35307;BME280;21420;52.196;21.416;2022-08-19T07:11:45;100001.19;;;29.88;58.51
35307;BME280;21420;52.196;21.416;2022-08-19T07:14:13;100006.06;;;30.55;57.96
35307;BME280;21420;52.196;21.416;2022-08-19T07:16:41;100006.73;;;30.89;57.10
35307;BME280;21420;52.196;21.416;2022-08-19T07:19:08;100010.55;;;31.30;56.66
35307;BME280;21420;52.196;21.416;2022-08-19T07:21:35;99999.97;;;31.76;56.41
35307;BME280;21420;52.196;21.416;2022-08-19T07:24:03;100008.17;;;32.19;56.01
35307;BME280;21420;52.196;21.416;2022-08-19T07:26:33;100003.00;;;32.69;55.57
35307;BME280;21420;52.196;21.416;2022-08-19T07:29:01;100002.50;;;33.07;55.30
35307;BME280;21420;52.196;21.416;2022-08-19T07:31:28;99996.83;;;33.07;54.19
35307;BME280;21420;52.196;21.416;2022-08-19T07:33:56;99998.56;;;33.14;53.94
35307;BME280;21420;52.196;21.416;2022-08-19T07:36:25;100000.14;;;33.31;53.78
35307;BME280;21420;52.196;21.416;2022-08-19T07:38:54;99995.13;;;33.52;53.41
35307;BME280;21420;52.196;21.416;2022-08-19T07:41:23;100000.05;;;33.89;53.58
35307;BME280;21420;52.196;21.416;2022-08-19T07:43:50;99996.34;;;34.48;53.38
35307;BME280;21420;52.196;21.416;2022-08-19T07:46:18;100000.91;;;35.28;53.31
35307;BME280;21420;52.196;21.416;2022-08-19T07:48:47;99996.88;;;35.58;52.24
35307;BME280;21420;52.196;21.416;2022-08-19T07:51:19;99990.03;;;35.43;50.83
35307;BME280;21420;52.196;21.416;2022-08-19T07:53:48;99990.43;;;35.40;50.29
35307;BME280;21420;52.196;21.416;2022-08-19T07:56:17;99992.36;;;35.39;50.25
35307;BME280;21420;52.196;21.416;2022-08-19T07:58:49;99989.75;;;35.75;50.57
35307;BME280;21420;52.196;21.416;2022-08-19T08:01:22;99994.65;;;35.80;50.19
35307;BME280;21420;52.196;21.416;2022-08-19T08:03:51;100002.02;;;35.82;48.72
35307;BME280;21420;52.196;21.416;2022-08-19T08:06:36;99999.36;;;35.27;47.94
35307;BME280;21420;52.196;21.416;2022-08-19T08:09:27;100006.42;;;34.93;48.74
35307;BME280;21420;52.196;21.416;2022-08-19T08:11:59;100006.77;;;34.73;48.73
35307;BME280;21420;52.196;21.416;2022-08-19T08:14:42;100004.04;;;34.74;49.05
35307;BME280;21420;52.196;21.416;2022-08-19T08:17:14;100001.09;;;34.90;49.23
35307;BME280;21420;52.196;21.416;2022-08-19T08:19:43;99993.40;;;35.19;49.19
35307;BME280;21420;52.196;21.416;2022-08-19T08:22:11;99990.30;;;35.34;48.42
35307;BME280;21420;52.196;21.416;2022-08-19T08:25:12;100004.22;;;35.03;47.69
35307;BME280;21420;52.196;21.416;2022-08-19T08:27:39;100001.88;;;34.85;48.29
35307;BME280;21420;52.196;21.416;2022-08-19T08:30:08;100001.54;;;35.33;48.97
35307;BME280;21420;52.196;21.416;2022-08-19T08:32:37;99998.27;;;35.86;49.19
35307;BME280;21420;52.196;21.416;2022-08-19T08:35:06;99995.07;;;36.23;48.21
35307;BME280;21420;52.196;21.416;2022-08-19T08:37:35;99988.95;;;36.55;48.27
35307;BME280;21420;52.196;21.416;2022-08-19T08:40:09;99985.44;;;36.56;47.60
35307;BME280;21420;52.196;21.416;2022-08-19T08:42:57;99985.59;;;36.51;47.25
35307;BME280;21420;52.196;21.416;2022-08-19T08:45:26;99985.30;;;36.66;46.92
35307;BME280;21420;52.196;21.416;2022-08-19T08:47:55;99983.80;;;36.95;47.31
35307;BME280;21420;52.196;21.416;2022-08-19T08:50:34;99989.59;;;36.84;46.13
35307;BME280;21420;52.196;21.416;2022-08-19T08:53:02;99988.95;;;36.79;46.60
35307;BME280;21420;52.196;21.416;2022-08-19T08:55:31;99983.85;;;37.07;46.34
35307;BME280;21420;52.196;21.416;2022-08-19T09:00:46;99971.23;;;37.70;46.65
35307;BME280;21420;52.196;21.416;2022-08-19T09:03:26;99978.78;;;37.92;46.23
35307;BME280;21420;52.196;21.416;2022-08-19T09:06:10;99980.97;;;38.36;46.17
35307;BME280;21420;52.196;21.416;2022-08-19T09:08:52;99984.88;;;38.45;45.01
35307;BME280;21420;52.196;21.416;2022-08-19T09:11:52;99982.98;;;38.10;44.70
35307;BME280;21420;52.196;21.416;2022-08-19T09:14:50;99988.99;;;37.94;44.12
35307;BME280;21420;52.196;21.416;2022-08-19T09:17:22;99987.88;;;38.15;45.26
35307;BME280;21420;52.196;21.416;2022-08-19T09:19:59;99998.00;;;38.47;44.62
35307;BME280;21420;52.196;21.416;2022-08-19T09:22:26;100001.50;;;38.66;44.57
35307;BME280;21420;52.196;21.416;2022-08-19T09:24:53;100004.29;;;38.52;43.32
35307;BME280;21420;52.196;21.416;2022-08-19T09:27:20;100012.59;;;38.13;43.24
35307;BME280;21420;52.196;21.416;2022-08-19T09:29:51;100006.73;;;37.87;42.49
35307;BME280;21420;52.196;21.416;2022-08-19T09:32:20;99999.60;;;37.32;42.97
35307;BME280;21420;52.196;21.416;2022-08-19T09:34:47;100013.48;;;38.02;43.99
35307;BME280;21420;52.196;21.416;2022-08-19T09:37:14;100003.30;;;37.82;42.29
35307;BME280;21420;52.196;21.416;2022-08-19T09:39:40;100004.25;;;37.65;42.46
35307;BME280;21420;52.196;21.416;2022-08-19T09:42:08;99997.78;;;38.02;43.02
35307;BME280;21420;52.196;21.416;2022-08-19T09:44:40;99993.64;;;38.22;43.00
35307;BME280;21420;52.196;21.416;2022-08-19T09:47:09;100000.20;;;38.48;42.78
35307;BME280;21420;52.196;21.416;2022-08-19T09:49:37;100006.02;;;38.87;43.02
35307;BME280;21420;52.196;21.416;2022-08-19T09:52:05;100003.68;;;39.37;43.29
35307;BME280;21420;52.196;21.416;2022-08-19T09:54:34;100008.39;;;39.80;42.85
35307;BME280;21420;52.196;21.416;2022-08-19T09:57:01;100012.72;;;39.08;40.98
35307;BME280;21420;52.196;21.416;2022-08-19T09:59:27;100010.95;;;38.61;41.20
35307;BME280;21420;52.196;21.416;2022-08-19T10:01:54;100023.41;;;37.95;40.46
35307;BME280;21420;52.196;21.416;2022-08-19T10:04:23;100007.75;;;37.47;40.72
35307;BME280;21420;52.196;21.416;2022-08-19T10:06:51;100011.33;;;37.53;41.45
35307;BME280;21420;52.196;21.416;2022-08-19T10:09:21;100009.61;;;37.75;41.66
35307;BME280;21420;52.196;21.416;2022-08-19T10:11:47;100008.78;;;38.04;41.90
35307;BME280;21420;52.196;21.416;2022-08-19T10:14:15;100010.14;;;38.53;41.81
35307;BME280;21420;52.196;21.416;2022-08-19T10:16:42;100021.19;;;38.63;41.58
35307;BME280;21420;52.196;21.416;2022-08-19T10:19:09;100006.42;;;38.78;41.26
35307;BME280;21420;52.196;21.416;2022-08-19T10:21:36;99999.20;;;38.64;41.02
35307;BME280;21420;52.196;21.416;2022-08-19T10:24:04;100006.63;;;38.80;40.81
35307;BME280;21420;52.196;21.416;2022-08-19T10:26:34;100006.08;;;38.93;40.61
35307;BME280;21420;52.196;21.416;2022-08-19T10:29:03;99995.95;;;38.55;39.77
35307;BME280;21420;52.196;21.416;2022-08-19T10:31:34;100000.41;;;38.31;40.03
35307;BME280;21420;52.196;21.416;2022-08-19T10:34:01;100001.98;;;38.20;39.40
35307;BME280;21420;52.196;21.416;2022-08-19T10:36:33;100002.70;;;37.77;39.40
35307;BME280;21420;52.196;21.416;2022-08-19T10:39:05;99997.41;;;37.44;39.75
35307;BME280;21420;52.196;21.416;2022-08-19T10:41:35;99991.35;;;37.41;39.16
35307;BME280;21420;52.196;21.416;2022-08-19T10:44:05;99976.72;;;37.02;39.76
35307;BME280;21420;52.196;21.416;2022-08-19T10:46:37;99978.78;;;36.89;39.38
35307;BME280;21420;52.196;21.416;2022-08-19T10:49:07;99966.36;;;37.22;40.29
35307;BME280;21420;52.196;21.416;2022-08-19T10:51:35;99985.53;;;37.52;39.93
35307;BME280;21420;52.196;21.416;2022-08-19T10:54:21;99977.15;;;37.47;39.28
35307;BME280;21420;52.196;21.416;2022-08-19T10:56:47;99975.27;;;37.56;39.40
35307;BME280;21420;52.196;21.416;2022-08-19T10:59:24;99975.27;;;37.56;39.55
35307;BME280;21420;52.196;21.416;2022-08-19T11:01:54;99965.27;;;37.80;39.73
35307;BME280;21420;52.196;21.416;2022-08-19T11:04:27;99972.06;;;38.33;39.82
35307;BME280;21420;52.196;21.416;2022-08-19T11:06:54;99983.55;;;38.59;38.94
35307;BME280;21420;52.196;21.416;2022-08-19T11:09:23;99976.55;;;38.16;38.47
35307;BME280;21420;52.196;21.416;2022-08-19T11:11:51;99967.17;;;37.84;38.32
35307;BME280;21420;52.196;21.416;2022-08-19T11:14:21;99974.72;;;37.45;38.07
35307;BME280;21420;52.196;21.416;2022-08-19T11:16:49;99970.41;;;37.33;38.47
35307;BME280;21420;52.196;21.416;2022-08-19T11:19:17;99969.17;;;37.53;38.74
35307;BME280;21420;52.196;21.416;2022-08-19T11:21:49;99968.94;;;37.50;38.03
35307;BME280;21420;52.196;21.416;2022-08-19T11:24:19;99971.64;;;37.07;37.84
35307;BME280;21420;52.196;21.416;2022-08-19T11:26:48;99968.83;;;37.01;37.80
35307;BME280;21420;52.196;21.416;2022-08-19T11:29:18;99954.56;;;36.83;38.22
35307;BME280;21420;52.196;21.416;2022-08-19T11:31:48;99948.50;;;36.98;38.00
35307;BME280;21420;52.196;21.416;2022-08-19T11:34:21;99956.22;;;36.73;37.66
35307;BME280;21420;52.196;21.416;2022-08-19T11:36:50;99946.14;;;37.02;38.69
35307;BME280;21420;52.196;21.416;2022-08-19T11:39:19;99952.05;;;37.10;37.59
35307;BME280;21420;52.196;21.416;2022-08-19T11:41:48;99947.41;;;36.71;37.43
35307;BME280;21420;52.196;21.416;2022-08-19T11:44:14;99945.38;;;36.66;37.55
35307;BME280;21420;52.196;21.416;2022-08-19T11:46:43;99952.21;;;36.70;37.52
35307;BME280;21420;52.196;21.416;2022-08-19T11:49:17;99948.26;;;36.60;37.42
35307;BME280;21420;52.196;21.416;2022-08-19T11:51:42;99940.41;;;36.48;37.41
35307;BME280;21420;52.196;21.416;2022-08-19T11:54:11;99937.22;;;36.40;37.51
35307;BME280;21420;52.196;21.416;2022-08-19T11:56:40;99949.23;;;36.45;37.79
35307;BME280;21420;52.196;21.416;2022-08-19T11:59:07;99943.50;;;36.51;37.41
35307;BME280;21420;52.196;21.416;2022-08-19T12:01:34;99947.11;;;36.27;37.13
35307;BME280;21420;52.196;21.416;2022-08-19T12:04:00;99943.39;;;36.20;37.21
35307;BME280;21420;52.196;21.416;2022-08-19T12:06:29;99939.57;;;36.12;37.19
35307;BME280;21420;52.196;21.416;2022-08-19T12:09:05;99937.16;;;35.93;37.17
35307;BME280;21420;52.196;21.416;2022-08-19T12:11:35;99939.69;;;36.08;37.66
35307;BME280;21420;52.196;21.416;2022-08-19T12:14:02;99930.41;;;36.31;37.42
35307;BME280;21420;52.196;21.416;2022-08-19T12:16:31;99929.19;;;36.38;37.18
35307;BME280;21420;52.196;21.416;2022-08-19T12:18:58;99919.88;;;36.14;36.73
35307;BME280;21420;52.196;21.416;2022-08-19T12:21:27;99923.22;;;35.78;36.93
35307;BME280;21420;52.196;21.416;2022-08-19T12:23:56;99916.46;;;35.86;37.25
35307;BME280;21420;52.196;21.416;2022-08-19T12:26:25;99914.78;;;35.84;37.08
35307;BME280;21420;52.196;21.416;2022-08-19T12:28:53;99920.06;;;35.98;37.33
35307;BME280;21420;52.196;21.416;2022-08-19T12:31:20;99910.09;;;35.98;37.05
35307;BME280;21420;52.196;21.416;2022-08-19T12:33:47;99905.31;;;35.94;37.09
35307;BME280;21420;52.196;21.416;2022-08-19T12:36:15;99909.78;;;36.08;37.27
35307;BME280;21420;52.196;21.416;2022-08-19T12:38:44;99912.61;;;36.19;37.20
35307;BME280;21420;52.196;21.416;2022-08-19T12:41:14;99892.69;;;36.13;37.49
35307;BME280;21420;52.196;21.416;2022-08-19T12:43:43;99879.63;;;36.53;37.65
35307;BME280;21420;52.196;21.416;2022-08-19T12:46:11;99872.91;;;36.68;37.28
35307;BME280;21420;52.196;21.416;2022-08-19T12:48:38;99883.34;;;36.78;37.39
35307;BME280;21420;52.196;21.416;2022-08-19T12:51:07;99885.53;;;36.78;36.73
35307;BME280;21420;52.196;21.416;2022-08-19T12:53:41;99891.05;;;36.71;37.01
35307;BME280;21420;52.196;21.416;2022-08-19T12:56:09;99886.93;;;36.84;37.04
35307;BME280;21420;52.196;21.416;2022-08-19T12:58:36;99880.95;;;37.00;37.02
35307;BME280;21420;52.196;21.416;2022-08-19T13:01:08;99879.52;;;37.18;36.84
35307;BME280;21420;52.196;21.416;2022-08-19T13:03:35;99880.43;;;36.83;36.29
35307;BME280;21420;52.196;21.416;2022-08-19T13:06:02;99879.66;;;36.47;36.44